createdAt,value
2022-12-25T16:29:25.969Z,4.29
2022-12-25T16:32:30.348Z,4.57
2022-12-25T16:35:34.801Z,4.73
2022-12-25T16:38:38.619Z,4.63
2022-12-25T16:41:42.439Z,4.66
2022-12-25T16:44:47.635Z,4.77
2022-12-25T16:47:51.594Z,4.74
2022-12-25T16:50:55.411Z,4.85
2022-12-25T16:53:59.228Z,4.63
2022-12-25T16:57:03.127Z,4.75
2022-12-25T17:00:10.262Z,4.66
2022-12-25T17:03:14.250Z,4.69
2022-12-25T17:06:20.629Z,4.61
2022-12-25T17:09:24.832Z,4.79
2022-12-25T17:12:28.797Z,4.76
2022-12-25T17:15:34.123Z,4.77
2022-12-25T17:18:38.284Z,4.89
2022-12-25T17:21:42.181Z,5.01
2022-12-25T17:24:46.122Z,5.13
2022-12-25T17:27:50.627Z,5.16
2022-12-25T17:30:55.947Z,5.19
2022-12-25T17:34:01.690Z,5.19
2022-12-25T17:37:05.727Z,4.99
2022-12-25T17:40:10.730Z,5.03
2022-12-25T17:43:20.537Z,5.06
2022-12-25T17:46:27.961Z,5.05
2022-12-25T17:49:31.823Z,5.11
2022-12-25T17:52:35.673Z,5.30
2022-12-25T17:55:41.256Z,5.40
2022-12-25T17:58:45.899Z,5.52
2022-12-25T18:01:51.181Z,5.46
2022-12-25T18:04:55.087Z,5.45
2022-12-25T18:07:59.029Z,5.23
2022-12-25T18:11:05.783Z,5.13
2022-12-25T18:14:12.538Z,5.09
2022-12-25T18:17:17.709Z,5.12
2022-12-25T18:20:21.761Z,5.00
2022-12-25T18:23:25.978Z,5.14
2022-12-25T18:26:29.858Z,5.27
2022-12-25T18:29:33.669Z,5.15
2022-12-25T18:32:39.275Z,5.02
2022-12-25T18:35:44.489Z,4.98
2022-12-25T18:38:48.684Z,5.01
2022-12-25T18:42:09.673Z,5.08
2022-12-25T18:45:15.859Z,5.12
2022-12-25T18:48:22.977Z,5.17
2022-12-25T18:51:33.119Z,5.15
2022-12-25T18:54:40.301Z,5.10
2022-12-25T18:57:44.121Z,5.11
2022-12-25T19:00:47.936Z,5.04
2022-12-25T19:04:00.203Z,4.96
2022-12-25T19:07:07.881Z,5.09
2022-12-25T19:10:11.913Z,5.17
2022-12-25T19:13:15.725Z,5.36
2022-12-25T19:16:19.682Z,5.20
2022-12-25T19:19:25.528Z,5.12
2022-12-25T19:22:29.442Z,5.19
2022-12-25T19:25:33.254Z,5.34
2022-12-25T19:28:37.688Z,5.38
2022-12-25T19:31:41.835Z,5.28
2022-12-25T19:34:47.189Z,5.21
2022-12-25T19:37:51.064Z,5.28
2022-12-25T19:41:03.936Z,5.19
2022-12-25T19:44:08.080Z,5.03
2022-12-25T19:47:12.178Z,5.16
2022-12-25T19:50:17.534Z,5.19
2022-12-25T19:53:23.745Z,5.17
2022-12-25T19:56:29.029Z,5.34
2022-12-25T19:59:32.893Z,5.43
2022-12-25T20:02:36.817Z,5.40
2022-12-25T20:05:45.593Z,5.41
2022-12-25T20:08:52.497Z,5.48
2022-12-25T20:11:56.597Z,5.48
2022-12-25T20:15:00.765Z,5.77
2022-12-25T20:18:04.861Z,5.77
2022-12-25T20:21:14.156Z,5.71
2022-12-25T20:24:18.241Z,5.72
2022-12-25T20:27:22.085Z,5.68
2022-12-25T20:30:25.893Z,5.71
2022-12-25T20:33:29.701Z,5.81
2022-12-25T20:36:37.764Z,5.83
2022-12-25T20:39:42.401Z,5.74
2022-12-25T20:42:47.159Z,5.74
2022-12-25T20:45:52.849Z,5.63
2022-12-25T20:48:57.121Z,5.62
2022-12-25T20:52:05.558Z,5.76
2022-12-25T20:55:10.156Z,5.48
2022-12-25T20:58:14.552Z,5.56
2022-12-25T21:01:19.007Z,5.44
2022-12-25T21:04:23.240Z,5.63
2022-12-25T21:07:28.616Z,5.82
2022-12-25T21:10:32.465Z,5.87
2022-12-25T21:13:38.196Z,5.70
2022-12-25T21:16:43.993Z,5.87
2022-12-25T21:19:48.139Z,5.89
2022-12-25T21:22:53.686Z,5.91
2022-12-25T21:25:57.833Z,5.99
2022-12-25T21:29:03.359Z,6.02
2022-12-25T21:32:25.319Z,5.98
2022-12-25T21:35:29.301Z,5.96
2022-12-25T21:38:34.776Z,5.97
2022-12-25T21:41:39.878Z,5.98
2022-12-25T21:44:43.759Z,6.02
2022-12-25T21:48:02.156Z,6.09
2022-12-25T21:51:26.895Z,6.10
2022-12-25T21:54:32.148Z,6.03
2022-12-25T21:57:35.937Z,6.05
2022-12-25T22:00:39.748Z,6.07
2022-12-25T22:03:43.667Z,6.08
2022-12-25T22:07:05.317Z,6.05
2022-12-25T22:10:10.754Z,6.09
2022-12-25T22:13:31.968Z,6.10
2022-12-25T22:16:53.144Z,6.13
2022-12-25T22:19:57.616Z,6.14
2022-12-25T22:23:01.727Z,6.13
2022-12-25T22:26:07.809Z,6.15
2022-12-25T22:29:12.270Z,6.14
2022-12-25T22:32:17.103Z,6.18
2022-12-25T22:35:21.609Z,6.20
2022-12-25T22:38:25.392Z,6.11
2022-12-25T22:41:33.636Z,6.12
2022-12-25T22:44:37.906Z,6.11
2022-12-25T22:47:41.748Z,6.11
2022-12-25T22:50:45.493Z,6.14
2022-12-25T22:53:50.121Z,6.19
2022-12-25T23:07:16.296Z,5.79
2022-12-25T23:10:20.244Z,6.02
